createdAt,value
2019-02-11T00:01:13.033Z,90.54
2019-02-11T00:03:42.393Z,91.14
2019-02-11T00:06:12.370Z,90.27
2019-02-11T00:08:41.305Z,90.97
2019-02-11T00:11:10.108Z,90.13
2019-02-11T00:13:39.549Z,90.25
2019-02-11T00:16:08.443Z,90.17
2019-02-11T00:18:37.250Z,90.64
2019-02-11T00:21:06.035Z,90.65
2019-02-11T00:23:34.826Z,90.08
2019-02-11T00:26:03.644Z,90.34
2019-02-11T00:28:32.487Z,90.27
2019-02-11T00:31:01.289Z,90.34
2019-02-11T00:33:30.225Z,90.82
2019-02-11T00:35:59.032Z,90.87
2019-02-11T00:38:27.871Z,90.89
2019-02-11T00:40:56.722Z,90.33
2019-02-11T00:43:25.507Z,90.68
2019-02-11T00:45:54.284Z,90.59
2019-02-11T00:48:23.122Z,91.05
2019-02-11T00:50:51.995Z,90.32
2019-02-11T00:53:20.775Z,90.35
2019-02-11T00:55:50.558Z,90.98
2019-02-11T00:58:19.352Z,90.65
2019-02-11T01:00:48.131Z,90.93
2019-02-11T01:03:17.503Z,90.81
2019-02-11T01:05:47.011Z,90.58
2019-02-11T01:08:15.870Z,91.12
2019-02-11T01:10:44.784Z,91.15
2019-02-11T01:13:14.030Z,91.34
2019-02-11T01:15:42.830Z,90.73
2019-02-11T01:18:11.601Z,91.02
2019-02-11T01:20:41.756Z,90.90
2019-02-11T01:23:10.579Z,90.55
2019-02-11T01:25:39.400Z,90.57
2019-02-11T01:28:08.976Z,90.52
2019-02-11T01:30:39.175Z,90.98
2019-02-11T01:33:09.768Z,90.72
2019-02-11T01:35:38.550Z,91.45
2019-02-11T01:38:07.434Z,90.82
2019-02-11T01:40:36.204Z,91.57
2019-02-11T01:43:05.034Z,90.83
2019-02-11T01:45:33.828Z,91.01
2019-02-11T01:48:03.126Z,90.62
2019-02-11T01:50:31.930Z,91.41
2019-02-11T01:53:01.533Z,90.91
2019-02-11T01:55:30.349Z,90.76
2019-02-11T01:58:01.069Z,91.03
2019-02-11T02:00:29.887Z,91.34
2019-02-11T02:02:58.690Z,91.34
2019-02-11T02:05:27.468Z,91.47
2019-02-11T02:07:56.362Z,91.58
2019-02-11T02:10:25.136Z,90.79
2019-02-11T02:12:53.964Z,90.58
2019-02-11T02:15:22.728Z,91.30
2019-02-11T02:17:51.544Z,91.07
2019-02-11T02:20:23.406Z,91.58
2019-02-11T02:22:52.271Z,91.38
2019-02-11T02:25:21.075Z,91.65
2019-02-11T02:27:49.859Z,91.88
2019-02-11T02:30:18.653Z,91.21
2019-02-11T02:32:47.526Z,91.23
2019-02-11T02:35:16.471Z,91.16
2019-02-11T02:37:45.337Z,91.67
2019-02-11T02:40:14.136Z,91.25
2019-02-11T02:42:42.887Z,91.72
2019-02-11T02:45:11.676Z,91.22
2019-02-11T02:47:40.487Z,91.39
2019-02-11T02:50:10.138Z,91.33
2019-02-11T02:52:38.985Z,90.71
2019-02-11T02:55:08.091Z,89.68
2019-02-11T02:57:36.880Z,88.99
2019-02-11T03:00:06.998Z,88.18
2019-02-11T03:02:35.834Z,88.00
2019-02-11T03:05:05.145Z,87.33
2019-02-11T03:07:33.930Z,87.68
2019-02-11T03:10:02.717Z,87.57
2019-02-11T03:12:31.534Z,87.69
2019-02-11T03:15:00.346Z,87.75
2019-02-11T03:17:29.118Z,87.68
2019-02-11T03:19:58.016Z,87.60
2019-02-11T03:22:26.799Z,88.75
2019-02-11T03:24:55.572Z,88.47
2019-02-11T03:27:25.293Z,88.05
2019-02-11T03:29:54.423Z,88.81
2019-02-11T03:32:23.286Z,88.98
2019-02-11T03:34:52.118Z,88.76
2019-02-11T03:37:20.941Z,88.93
2019-02-11T03:39:49.727Z,89.24
2019-02-11T03:42:18.725Z,88.75
2019-02-11T03:44:48.050Z,89.22
2019-02-11T03:47:16.850Z,89.07
2019-02-11T03:49:45.750Z,89.14
2019-02-11T03:52:14.600Z,89.30
2019-02-11T03:54:43.396Z,89.45
2019-02-11T03:57:12.195Z,89.48
2019-02-11T03:59:40.977Z,89.72
2019-02-11T04:02:09.773Z,89.97
2019-02-11T04:04:39.499Z,89.56
2019-02-11T04:07:08.403Z,89.65
2019-02-11T04:09:37.190Z,90.20
2019-02-11T04:12:05.959Z,89.96
2019-02-11T04:14:35.737Z,89.85
2019-02-11T04:17:05.470Z,90.25
2019-02-11T04:19:35.413Z,89.92
2019-02-11T04:22:08.362Z,90.08
2019-02-11T04:24:37.610Z,89.91
2019-02-11T04:27:06.724Z,89.85
2019-02-11T04:29:35.620Z,89.84
2019-02-11T04:32:05.459Z,90.12
2019-02-11T04:34:34.244Z,90.30
2019-02-11T04:37:03.016Z,90.62
2019-02-11T04:39:31.852Z,90.52
2019-02-11T04:42:00.744Z,90.59
2019-02-11T04:44:33.928Z,90.74
2019-02-11T04:46:58.477Z,90.23
2019-02-11T04:49:27.747Z,90.55
2019-02-11T04:51:58.890Z,90.45
2019-02-11T04:54:32.639Z,90.29
2019-02-11T04:57:04.870Z,90.78
2019-02-11T04:59:33.741Z,90.63
2019-02-11T05:02:02.546Z,90.93
2019-02-11T05:04:31.375Z,91.02
2019-02-11T05:07:00.189Z,91.74
2019-02-11T05:09:29.479Z,91.52
2019-02-11T05:11:58.300Z,91.19
2019-02-11T05:14:27.092Z,91.04
2019-02-11T05:16:55.893Z,91.26
2019-02-11T05:19:25.121Z,91.01
2019-02-11T05:21:54.246Z,91.18
2019-02-11T05:24:23.023Z,91.48
2019-02-11T05:26:51.798Z,91.85
2019-02-11T05:29:21.209Z,91.66
2019-02-11T05:31:49.991Z,91.19
2019-02-11T05:34:19.422Z,91.96
2019-02-11T05:36:48.234Z,91.86
2019-02-11T05:39:18.124Z,91.76
2019-02-11T05:41:46.906Z,91.43
2019-02-11T05:44:15.772Z,91.84
2019-02-11T05:46:44.531Z,91.46
2019-02-11T05:49:13.306Z,92.49
2019-02-11T05:51:42.683Z,92.51
2019-02-11T05:54:11.476Z,92.36
2019-02-11T05:56:40.253Z,92.75
2019-02-11T05:59:09.057Z,92.83
2019-02-11T06:01:37.823Z,92.99
2019-02-11T06:04:06.678Z,92.84
2019-02-11T06:06:36.688Z,92.92
2019-02-11T06:09:06.232Z,93.46
2019-02-11T06:11:35.003Z,93.12
2019-02-11T06:14:03.836Z,93.62
2019-02-11T06:16:32.669Z,93.06
2019-02-11T06:19:02.679Z,93.76
2019-02-11T06:21:32.714Z,93.96
2019-02-11T06:24:01.464Z,93.42
2019-02-11T06:26:32.161Z,93.32
2019-02-11T06:29:02.048Z,93.28
2019-02-11T06:31:30.880Z,93.26
2019-02-11T06:33:59.649Z,93.14
2019-02-11T06:36:28.471Z,93.19
2019-02-11T06:38:58.092Z,93.42
2019-02-11T06:41:26.850Z,93.49
2019-02-11T06:43:55.645Z,93.21
2019-02-11T06:46:24.406Z,93.77
2019-02-11T06:48:53.238Z,93.57
2019-02-11T06:51:22.022Z,93.45
2019-02-11T06:53:50.822Z,93.63
2019-02-11T06:56:19.627Z,93.25
2019-02-11T06:58:49.419Z,93.47
2019-02-11T07:01:21.247Z,93.50
2019-02-11T07:03:50.023Z,93.46
2019-02-11T07:06:18.803Z,93.73
2019-02-11T07:08:47.729Z,93.15
2019-02-11T07:11:16.513Z,93.07
2019-02-11T07:13:45.428Z,92.95
2019-02-11T07:16:14.297Z,93.32
2019-02-11T07:18:43.069Z,93.44
2019-02-11T07:21:11.920Z,93.34
2019-02-11T07:23:40.731Z,93.36
2019-02-11T07:26:10.257Z,93.53
2019-02-11T07:28:39.083Z,93.33
2019-02-11T07:31:07.871Z,93.84
2019-02-11T07:33:37.005Z,93.67
2019-02-11T07:36:05.892Z,93.39
2019-02-11T07:38:34.709Z,93.81
2019-02-11T07:41:04.346Z,93.68
2019-02-11T07:43:38.599Z,93.32
2019-02-11T07:46:15.219Z,94.16
2019-02-11T07:48:44.018Z,94.03
2019-02-11T07:51:14.362Z,93.92
2019-02-11T07:53:43.167Z,93.66
2019-02-11T07:56:12.101Z,93.66
2019-02-11T07:58:41.150Z,93.48
2019-02-11T08:01:09.978Z,93.02
2019-02-11T08:03:38.779Z,93.10
2019-02-11T08:06:09.228Z,93.23
2019-02-11T08:08:38.026Z,93.62
2019-02-11T08:11:06.819Z,93.38
2019-02-11T08:13:35.907Z,93.31
2019-02-11T08:16:07.550Z,93.47
2019-02-11T08:18:37.598Z,93.20
2019-02-11T08:21:08.016Z,92.67
2019-02-11T08:23:39.064Z,92.63
2019-02-11T08:26:07.827Z,92.13
2019-02-11T08:28:37.328Z,92.65
2019-02-11T08:31:06.125Z,92.09
2019-02-11T08:33:35.572Z,92.00
2019-02-11T08:36:04.395Z,91.84
2019-02-11T08:38:33.182Z,91.65
2019-02-11T08:41:01.984Z,91.61
2019-02-11T08:43:31.146Z,91.13
2019-02-11T08:45:59.924Z,91.29
2019-02-11T08:48:29.719Z,90.42
2019-02-11T08:50:58.507Z,90.38
2019-02-11T08:53:27.311Z,90.18
2019-02-11T08:55:56.092Z,89.70
2019-02-11T08:58:24.866Z,89.54
2019-02-11T09:00:54.943Z,89.18
2019-02-11T09:03:23.749Z,89.12
2019-02-11T09:05:52.548Z,88.16
2019-02-11T09:08:21.630Z,87.58
2019-02-11T09:10:50.420Z,87.30
2019-02-11T09:13:19.853Z,87.80
2019-02-11T09:15:55.180Z,87.41
2019-02-11T09:18:18.130Z,87.37
2019-02-11T09:20:46.984Z,87.34
2019-02-11T09:23:16.605Z,87.52
2019-02-11T09:25:47.397Z,87.23
2019-02-11T09:28:17.042Z,86.41
2019-02-11T09:30:45.843Z,86.00
2019-02-11T09:33:18.179Z,86.74
2019-02-11T09:35:46.972Z,86.07
2019-02-11T09:38:15.854Z,85.97
2019-02-11T09:40:45.606Z,86.00
2019-02-11T09:43:15.699Z,85.82
2019-02-11T09:45:44.541Z,85.48
2019-02-11T09:48:13.411Z,86.63
2019-02-11T09:50:44.495Z,86.60
2019-02-11T09:53:13.331Z,86.71
2019-02-11T09:55:42.110Z,87.27
2019-02-11T09:58:10.971Z,87.44
2019-02-11T10:00:39.748Z,87.40
2019-02-11T10:03:08.587Z,87.68
2019-02-11T10:05:37.399Z,87.61
2019-02-11T10:08:06.175Z,87.58
2019-02-11T10:10:35.947Z,87.61
2019-02-11T10:13:05.739Z,87.53
2019-02-11T10:15:34.631Z,87.53
2019-02-11T10:18:03.440Z,87.92
2019-02-11T10:20:33.333Z,86.91
2019-02-11T10:23:02.928Z,87.16
2019-02-11T10:25:31.719Z,86.65
2019-02-11T10:28:03.253Z,86.73
2019-02-11T10:30:32.070Z,86.94
2019-02-11T10:33:01.976Z,85.71
2019-02-11T10:35:30.760Z,85.07
2019-02-11T10:38:00.190Z,84.38
2019-02-11T10:40:28.955Z,85.16
2019-02-11T10:42:57.755Z,84.50
2019-02-11T10:45:36.266Z,83.05
2019-02-11T10:47:58.092Z,82.42
2019-02-11T10:50:26.902Z,81.99
2019-02-11T10:52:56.844Z,81.73
2019-02-11T10:55:25.628Z,79.65
2019-02-11T10:57:55.185Z,79.06
2019-02-11T11:00:24.000Z,79.37
2019-02-11T11:02:52.814Z,77.72
2019-02-11T11:05:21.951Z,78.02
2019-02-11T11:07:51.848Z,78.33
2019-02-11T11:10:24.094Z,77.60
2019-02-11T11:12:52.930Z,76.87
2019-02-11T11:15:21.776Z,74.70
2019-02-11T11:17:50.562Z,76.64
2019-02-11T11:20:19.390Z,75.42
2019-02-11T11:22:48.242Z,74.03
2019-02-11T11:25:18.108Z,75.03
2019-02-11T11:27:47.381Z,74.89
2019-02-11T11:30:16.316Z,75.14
2019-02-11T11:32:45.102Z,75.93
2019-02-11T11:35:14.293Z,76.00
2019-02-11T11:37:43.104Z,73.84
2019-02-11T11:40:13.549Z,73.92
2019-02-11T11:42:42.322Z,74.37
2019-02-11T11:45:13.733Z,73.04
2019-02-11T11:47:42.551Z,74.25
2019-02-11T11:50:11.380Z,74.66
2019-02-11T11:52:40.158Z,76.12
2019-02-11T11:55:10.131Z,76.50
2019-02-11T11:57:38.914Z,76.58
2019-02-11T12:00:22.462Z,77.42
2019-02-11T12:03:01.668Z,77.37
2019-02-11T12:05:20.381Z,78.22
2019-02-11T12:07:49.242Z,77.84
2019-02-11T12:10:18.054Z,78.16
2019-02-11T12:12:47.497Z,78.80
2019-02-11T12:15:17.750Z,78.98
2019-02-11T12:17:47.070Z,79.31
2019-02-11T12:20:15.894Z,79.47
2019-02-11T12:22:44.703Z,76.76
2019-02-11T12:25:14.346Z,77.91
2019-02-11T12:27:43.112Z,78.01
2019-02-11T12:30:14.331Z,76.15
2019-02-11T12:32:43.240Z,74.79
2019-02-11T12:35:12.661Z,75.28
2019-02-11T12:37:41.463Z,72.32
2019-02-11T12:40:10.507Z,72.57
2019-02-11T12:42:39.280Z,73.34
2019-02-11T12:45:10.650Z,72.87
2019-02-11T12:47:40.267Z,72.08
2019-02-11T12:50:10.169Z,67.26
2019-02-11T12:52:43.063Z,70.16
2019-02-11T12:55:12.680Z,70.34
2019-02-11T12:57:41.455Z,67.24
2019-02-11T13:00:16.873Z,59.32
2019-02-11T13:02:42.555Z,61.96
2019-02-11T13:05:11.674Z,62.04
2019-02-11T13:07:40.526Z,61.13
2019-02-11T13:10:09.837Z,61.83
2019-02-11T13:12:39.747Z,61.66
2019-02-11T13:15:07.624Z,61.76
2019-02-11T13:17:37.125Z,63.12
2019-02-11T13:20:10.023Z,63.22
2019-02-11T13:22:35.987Z,63.09
2019-02-11T13:25:08.005Z,63.59
2019-02-11T13:27:35.301Z,62.97
2019-02-11T13:30:04.591Z,63.73
2019-02-11T13:32:33.436Z,61.32
2019-02-11T13:35:02.313Z,63.91
2019-02-11T13:37:33.194Z,60.11
2019-02-11T13:40:02.021Z,61.44
2019-02-11T13:42:30.876Z,58.23
2019-02-11T13:45:00.557Z,58.36
2019-02-11T13:47:29.024Z,60.12
2019-02-11T13:49:57.835Z,61.28
2019-02-11T13:52:27.381Z,59.02
2019-02-11T13:54:56.175Z,58.87
2019-02-11T13:57:24.956Z,59.41
2019-02-11T13:59:53.824Z,60.34
2019-02-11T14:02:22.751Z,62.15
2019-02-11T14:04:52.428Z,61.54
2019-02-11T14:07:21.201Z,60.45
2019-02-11T14:09:49.980Z,60.47
2019-02-11T14:12:18.814Z,59.93
2019-02-11T14:14:48.272Z,59.65
2019-02-11T14:17:18.657Z,59.93
2019-02-11T14:19:47.440Z,59.84
2019-02-11T14:22:16.261Z,59.49
2019-02-11T14:24:45.145Z,57.47
2019-02-11T14:27:15.338Z,55.91
2019-02-11T14:29:45.465Z,57.07
2019-02-11T14:32:14.395Z,58.76
2019-02-11T14:34:43.187Z,59.07
2019-02-11T14:37:12.041Z,58.26
2019-02-11T14:39:41.347Z,57.82
2019-02-11T14:42:14.470Z,58.80
2019-02-11T14:44:40.045Z,60.27
2019-02-11T14:47:08.834Z,60.91
2019-02-11T14:49:37.720Z,61.57
2019-02-11T14:52:07.309Z,62.23
2019-02-11T14:54:36.151Z,61.07
2019-02-11T14:57:06.819Z,61.04
2019-02-11T14:59:35.631Z,62.32
2019-02-11T15:04:40.316Z,61.21
2019-02-11T15:07:09.779Z,60.38
2019-02-11T15:09:38.615Z,59.53
2019-02-11T15:12:07.414Z,60.40
2019-02-11T15:14:36.250Z,60.68
2019-02-11T15:17:05.751Z,61.37
2019-02-11T15:19:34.701Z,61.90
2019-02-11T15:22:05.230Z,61.59
2019-02-11T15:24:34.054Z,61.59
2019-02-11T15:27:02.840Z,61.82
2019-02-11T15:29:32.225Z,62.54
2019-02-11T15:32:01.144Z,63.28
2019-02-11T15:34:30.528Z,63.55
2019-02-11T15:36:59.382Z,63.84
2019-02-11T15:39:28.315Z,64.02
2019-02-11T15:41:57.124Z,65.07
2019-02-11T15:44:26.899Z,65.11
2019-02-11T15:46:56.993Z,64.91
2019-02-11T15:49:25.767Z,65.77
2019-02-11T15:51:54.582Z,65.47
2019-02-11T15:54:25.570Z,65.81
2019-02-11T15:56:54.346Z,66.12
2019-02-11T15:59:24.284Z,66.21
2019-02-11T16:01:53.127Z,66.04
2019-02-11T16:04:21.948Z,66.21
2019-02-11T16:06:50.758Z,67.23
2019-02-11T16:09:20.360Z,67.10
2019-02-11T16:11:49.643Z,67.70
2019-02-11T16:14:18.517Z,67.66
2019-02-11T16:16:47.395Z,68.23
2019-02-11T16:19:17.148Z,68.58
2019-02-11T16:21:45.953Z,68.30
2019-02-11T16:24:14.961Z,68.61
2019-02-11T16:26:43.811Z,68.80
2019-02-11T16:29:12.608Z,69.02
2019-02-11T16:31:41.446Z,69.69
2019-02-11T16:34:10.711Z,70.02
2019-02-11T16:36:39.553Z,70.22
2019-02-11T16:39:08.432Z,70.42
2019-02-11T16:41:37.597Z,70.36
2019-02-11T16:44:06.378Z,70.60
2019-02-11T16:46:35.307Z,70.36
2019-02-11T16:49:04.106Z,71.28
2019-02-11T16:51:32.874Z,71.42
2019-02-11T16:54:01.733Z,71.52
2019-02-11T16:56:31.880Z,72.21
2019-02-11T16:59:00.726Z,73.54
2019-02-11T17:01:30.247Z,73.29
2019-02-11T17:03:59.116Z,74.07
2019-02-11T17:06:28.595Z,73.73
2019-02-11T17:08:59.062Z,74.35
2019-02-11T17:11:28.531Z,73.83
2019-02-11T17:13:59.361Z,74.73
2019-02-11T17:16:28.209Z,75.16
2019-02-11T17:18:57.977Z,74.72
2019-02-11T17:21:27.008Z,74.79
2019-02-11T17:23:56.453Z,75.29
2019-02-11T17:26:26.252Z,75.64
2019-02-11T17:28:55.056Z,75.35
2019-02-11T17:31:23.867Z,75.50
2019-02-11T17:33:53.862Z,76.12
2019-02-11T17:36:23.456Z,76.28
2019-02-11T17:38:52.328Z,76.84
2019-02-11T17:41:21.726Z,76.08
2019-02-11T17:43:50.793Z,75.96
2019-02-11T17:46:20.159Z,76.36
2019-02-11T17:48:49.091Z,76.25
2019-02-11T17:51:21.657Z,76.52
2019-02-11T17:53:51.522Z,76.14
2019-02-11T17:56:20.364Z,77.23
2019-02-11T17:58:49.210Z,76.86
2019-02-11T18:01:18.116Z,76.62
2019-02-11T18:03:48.071Z,77.47
2019-02-11T18:06:17.734Z,77.61
2019-02-11T18:08:46.517Z,78.24
2019-02-11T18:11:15.344Z,78.29
2019-02-11T18:13:44.358Z,78.25
2019-02-11T18:16:13.112Z,78.44
2019-02-11T18:18:43.363Z,78.21
2019-02-11T18:21:12.284Z,78.31
2019-02-11T18:23:41.135Z,78.17
2019-02-11T18:26:09.972Z,78.22
2019-02-11T18:28:40.359Z,77.64
2019-02-11T18:31:09.139Z,78.27
2019-02-11T18:33:38.044Z,78.47
2019-02-11T18:36:07.455Z,78.09
2019-02-11T18:38:36.283Z,77.83
2019-02-11T18:41:05.179Z,78.04
2019-02-11T18:43:34.131Z,77.48
2019-02-11T18:46:02.920Z,77.68
2019-02-11T18:48:31.702Z,78.38
2019-02-11T18:51:00.583Z,78.62
2019-02-11T18:53:29.967Z,79.13
2019-02-11T18:55:58.754Z,79.73
2019-02-11T18:58:27.515Z,79.52
2019-02-11T19:00:56.311Z,79.80
2019-02-11T19:03:25.099Z,80.13
2019-02-11T19:05:53.930Z,79.76
2019-02-11T19:08:22.775Z,80.00
2019-02-11T19:10:51.634Z,79.42
2019-02-11T19:13:20.571Z,80.12
2019-02-11T19:15:49.348Z,79.51
2019-02-11T19:18:18.138Z,80.25
2019-02-11T19:20:47.010Z,80.06
2019-02-11T19:23:15.826Z,80.16
2019-02-11T19:25:44.667Z,80.18
2019-02-11T19:28:14.002Z,79.99
2019-02-11T19:30:42.934Z,80.14
2019-02-11T19:33:11.871Z,80.21
2019-02-11T19:35:41.007Z,79.95
2019-02-11T19:38:09.786Z,80.15
2019-02-11T19:40:38.912Z,80.19
2019-02-11T19:43:07.923Z,79.96
2019-02-11T19:45:37.333Z,80.08
2019-02-11T19:48:06.111Z,80.06
2019-02-11T19:50:34.943Z,80.61
2019-02-11T19:53:03.819Z,80.31
2019-02-11T19:55:32.663Z,80.41
2019-02-11T19:58:01.510Z,80.82
2019-02-11T20:00:31.864Z,80.18
2019-02-11T20:02:59.192Z,80.60
2019-02-11T20:05:28.007Z,81.34
2019-02-11T20:07:58.079Z,80.68
2019-02-11T20:10:26.853Z,80.63
2019-02-11T20:12:55.784Z,80.62
2019-02-11T20:15:24.764Z,81.07
2019-02-11T20:17:54.239Z,81.32
2019-02-11T20:20:23.187Z,81.23
2019-02-11T20:22:51.996Z,81.44
2019-02-11T20:25:22.532Z,81.32
2019-02-11T20:27:51.366Z,82.13
2019-02-11T20:30:22.340Z,81.72
2019-02-11T20:32:51.775Z,82.11
2019-02-11T20:35:21.638Z,82.12
2019-02-11T20:37:51.557Z,82.00
2019-02-11T20:40:22.183Z,82.08
2019-02-11T20:42:52.273Z,81.88
2019-02-11T20:45:23.337Z,82.67
2019-02-11T20:47:52.146Z,82.14
2019-02-11T20:50:22.633Z,82.22
2019-02-11T20:52:52.791Z,82.44
2019-02-11T20:55:22.205Z,82.30
2019-02-11T20:57:52.241Z,82.50
2019-02-11T21:00:22.792Z,82.59
2019-02-11T21:02:51.609Z,82.62
2019-02-11T21:05:21.676Z,83.39
2019-02-11T21:07:50.462Z,83.63
2019-02-11T21:10:19.404Z,83.15
2019-02-11T21:12:48.171Z,83.95
2019-02-11T21:15:16.989Z,83.69
2019-02-11T21:17:46.214Z,84.10
2019-02-11T21:20:18.738Z,84.15
2019-02-11T21:22:47.642Z,84.07
2019-02-11T21:25:16.517Z,84.03
2019-02-11T21:27:46.949Z,83.81
2019-02-11T21:30:15.795Z,83.59
2019-02-11T21:32:45.273Z,83.77
2019-02-11T21:35:14.644Z,83.53
2019-02-11T21:37:43.582Z,83.88
2019-02-11T21:40:12.366Z,83.84
2019-02-11T21:42:41.195Z,83.75
2019-02-11T21:45:10.686Z,83.94
2019-02-11T21:47:39.518Z,84.37
2019-02-11T21:50:09.966Z,84.10
2019-02-11T21:52:39.417Z,83.86
2019-02-11T21:55:10.563Z,84.07
2019-02-11T21:57:40.379Z,83.64
2019-02-11T22:00:12.358Z,84.22
2019-02-11T22:02:41.851Z,84.65
2019-02-11T22:05:10.628Z,84.27
2019-02-11T22:07:40.611Z,85.12
2019-02-11T22:10:11.381Z,84.61
2019-02-11T22:12:40.213Z,84.85
2019-02-11T22:15:09.712Z,85.00
2019-02-11T22:17:39.373Z,85.17
2019-02-11T22:20:10.303Z,84.96
2019-02-11T22:22:39.091Z,85.25
2019-02-11T22:25:08.743Z,85.43
2019-02-11T22:27:37.587Z,85.49
2019-02-11T22:30:08.481Z,85.35
2019-02-11T22:32:38.519Z,85.41
2019-02-11T22:35:08.205Z,85.60
2019-02-11T22:37:37.702Z,85.89
2019-02-11T22:40:07.504Z,85.46
2019-02-11T22:42:36.303Z,85.14
2019-02-11T22:45:05.408Z,85.04
2019-02-11T22:47:34.394Z,85.04
2019-02-11T22:50:04.896Z,85.07
2019-02-11T22:52:33.770Z,85.17
2019-02-11T22:55:02.607Z,84.85
2019-02-11T22:57:31.479Z,85.27
2019-02-11T23:00:01.199Z,85.78
2019-02-11T23:02:30.667Z,85.70
2019-02-11T23:04:59.540Z,85.25
2019-02-11T23:07:28.370Z,85.27
2019-02-11T23:09:57.772Z,86.01
2019-02-11T23:12:27.072Z,85.62
2019-02-11T23:14:55.868Z,85.15
2019-02-11T23:17:25.263Z,86.16
2019-02-11T23:19:54.079Z,86.05
2019-02-11T23:22:23.354Z,86.10
2019-02-11T23:24:52.087Z,87.04
2019-02-11T23:27:20.872Z,86.33
2019-02-11T23:29:50.103Z,86.51
2019-02-11T23:32:18.876Z,85.90
2019-02-11T23:34:49.200Z,85.89
2019-02-11T23:37:18.014Z,86.73
2019-02-11T23:39:47.932Z,86.22
2019-02-11T23:42:17.203Z,86.81
2019-02-11T23:44:45.967Z,86.60
2019-02-11T23:47:15.698Z,86.25
2019-02-11T23:49:44.775Z,86.27
2019-02-11T23:52:13.652Z,86.48
2019-02-11T23:54:44.156Z,86.35
2019-02-11T23:57:12.945Z,87.02
2019-02-11T23:59:41.719Z,87.22
